Skip to main content

NOAA/GLERL Met Station at Muskegon, MI

Previous 3 Hours (2 minute increments)
See also Previous 5 Days (top of hour)
Jump down to Data
Switch to [English][Metric]
Zoom: Click and drag, Pan: shift-click and drag, Unzoom: double-click, Unzoom All






See also 1-day windrose plot


NOAA/GLERL Met Station at Muskegon, MI

Previous 3 Hours (2 minute increments)
See also Previous 5 Days (top of hour only)
Jump up to Graphs
Switch to [English][Metric]
                  Wind  Wind  Wind   Air   Dew   Rel     Sta   PAR
                   Spd   Gst   Dir  Temp    Pt   Hum    Pres uE/m2/
YYYY-MM-DD   EDT   kts   kts   deg     F     F     %   in Hg   sec
2018-04-24 02:20   7.4   8.0   193  49.5  42.1  75.6   29.47     2
2018-04-24 02:18   7.0   7.4   194  49.5  42.1  75.6   29.47     2
2018-04-24 02:16   7.2   7.6   191  49.5  42.3  76.0   29.47     2
2018-04-24 02:14   7.4   8.2   189  49.3  42.3  76.6   29.47     2
2018-04-24 02:12   7.8   8.2   194  49.1  42.3  77.0   29.47     2
2018-04-24 02:10   7.6   8.4   193  49.1  42.4  77.3   29.48     2
2018-04-24 02:08   7.8   8.6   192  49.1  42.4  77.3   29.48     2
2018-04-24 02:06   8.0   8.4   193  49.1  42.4  77.5   29.48     2
2018-04-24 02:04   8.0   8.4   192  48.9  42.3  77.8   29.48     2
2018-04-24 02:02   7.6   8.2   192  48.9  42.4  77.9   29.48     2
2018-04-24 02:00   8.2   8.4   191  48.7  42.3  78.1   29.48     2
2018-04-24 01:58   8.4   8.9   188  48.7  42.4  78.5   29.48     2
2018-04-24 01:56   8.4   9.1   190  48.4  42.2  79.0   29.48     2
2018-04-24 01:54   8.7   9.1   189  48.4  42.2  79.0   29.48     2
2018-04-24 01:52   8.7   9.1   188  48.4  42.3  79.2   29.48     2
2018-04-24 01:50   9.1   9.3   189  48.2  42.2  79.5   29.48     2
2018-04-24 01:48   9.1   9.7   189  48.2  42.3  79.8   29.48     2
2018-04-24 01:46   9.3   9.7   188  48.0  42.3  80.2   29.48     2
2018-04-24 01:44   9.1   9.5   188  47.8  42.2  80.6   29.48     2
2018-04-24 01:42   9.7  10.5   186  47.7  42.1  80.7   29.48     2
2018-04-24 01:40   9.9  10.7   187  47.7  42.1  80.8   29.48     2
2018-04-24 01:38  10.1  10.5   186  47.7  42.0  80.5   29.48     2
2018-04-24 01:36  10.5  10.9   187  47.8  42.1  80.2   29.48     2
2018-04-24 01:34  10.3  10.9   187  47.8  42.1  80.2   29.48     2
2018-04-24 01:32  10.1  10.5   188  47.8  42.1  80.4   29.48     2
2018-04-24 01:30  10.1  10.7   190  47.7  42.0  80.6   29.48     2
2018-04-24 01:28  10.5  10.9   189  47.8  42.1  80.4   29.48     2
2018-04-24 01:26  10.5  10.9   190  48.0  42.2  79.9   29.48     2
2018-04-24 01:24  10.9  11.7   190  48.2  42.2  79.6   29.48     2
2018-04-24 01:22  11.1  11.9   189  48.2  42.2  79.5   29.48     2
2018-04-24 01:20  10.9  11.5   189  48.2  42.2  79.5   29.48     2
2018-04-24 01:18  11.3  11.9   190  48.2  42.2  79.6   29.48     2
2018-04-24 01:16  11.5  12.2   192  48.0  42.2  80.0   29.48     2
2018-04-24 01:14  11.7  12.2   189  47.8  42.1  80.2   29.48     2
2018-04-24 01:12  11.3  12.1   187  48.0  42.1  79.8   29.48     2
2018-04-24 01:10  11.5  12.4   190  48.2  42.3  79.9   29.48     2
2018-04-24 01:08  11.9  12.4   188  48.2  42.3  79.9   29.47     2
2018-04-24 01:06  12.1  12.4   187  48.2  42.4  80.1   29.47     2
2018-04-24 01:04  12.1  12.6   187  48.2  42.3  79.9   29.47     2
2018-04-24 01:02  12.4  13.0   187  48.4  42.4  79.7   29.47     2
2018-04-24 01:00  13.2  14.0   187  48.2  42.5  80.3   29.47     2
2018-04-24 00:58  13.8  14.4   187  47.8  42.3  81.0   29.47     2
2018-04-24 00:56  14.0  14.6   184  47.7  42.2  81.1   29.47     2
2018-04-24 00:54  14.0  14.6   184  47.5  42.0  80.9   29.47     2
2018-04-24 00:52  14.4  14.8   185  47.5  41.9  80.7   29.47     2
2018-04-24 00:50  14.4  15.0   185  47.5  41.8  80.3   29.47     2
2018-04-24 00:48  14.2  14.6   185  47.5  41.6  79.7   29.47     2
2018-04-24 00:46  14.4  15.0   186  47.8  41.7  79.1   29.47     2
2018-04-24 00:44  15.0  15.4   185  47.8  41.6  78.7   29.47     2
2018-04-24 00:42  14.8  15.6   187  47.8  41.6  78.8   29.47     2
2018-04-24 00:40  15.2  15.6   186  47.8  41.6  78.7   29.47     2
2018-04-24 00:38  15.4  15.7   186  48.0  41.8  78.7   29.47     1
2018-04-24 00:36  15.2  15.9   186  47.8  41.6  78.7   29.47     1
2018-04-24 00:34  15.2  16.1   185  47.8  41.5  78.3   29.47     1
2018-04-24 00:32  15.4  16.1   189  48.2  41.7  78.0   29.47     2
2018-04-24 00:30  15.7  16.7   186  48.2  41.7  78.1   29.47     2
2018-04-24 00:28  15.9  16.3   184  48.2  41.7  78.0   29.47     2
2018-04-24 00:26  15.9  16.7   184  48.2  41.7  78.0   29.47     2
2018-04-24 00:24  15.9  16.3   185  48.2  41.7  77.9   29.47     2
2018-04-24 00:22  16.3  16.9   184  48.2  41.5  77.3   29.47     2
2018-04-24 00:20  16.5  16.9   185  48.4  41.6  77.0   29.47     2
2018-04-24 00:18  16.7  17.3   185  48.4  41.5  76.8   29.47     2
2018-04-24 00:16  16.3  16.9   187  48.4  41.4  76.4   29.47     2
2018-04-24 00:14  16.1  17.3   188  48.6  41.4  75.9   29.47     2
2018-04-24 00:12  16.5  17.1   188  48.7  41.4  75.6   29.47     2
2018-04-24 00:10  16.7  17.1   189  48.7  41.3  75.3   29.47     2
2018-04-24 00:08  16.9  17.9   189  48.9  41.5  75.2   29.47     2
2018-04-24 00:06  17.7  18.5   187  48.9  41.4  75.0   29.47     2
2018-04-24 00:04  18.1  18.7   185  48.9  41.3  74.8   29.47     2
2018-04-24 00:02  17.7  18.5   186  48.9  41.2  74.4   29.47     2
2018-04-24 00:00  18.3  19.1   186  49.1  41.4  74.5   29.47     2
2018-04-23 23:58  18.1  19.1   186  48.9  41.4  75.1   29.47     2
2018-04-23 23:56  18.7  19.8   185  48.7  41.2  75.0   29.48     2
2018-04-23 23:54  19.2  19.8   184  48.7  41.2  75.0   29.48     2
2018-04-23 23:52  19.2  19.8   183  48.7  41.3  75.2   29.48     2
2018-04-23 23:50  19.1  19.4   184  48.7  41.4  75.5   29.48     2
2018-04-23 23:48  18.5  19.6   185  48.9  41.5  75.3   29.48     2
2018-04-23 23:46  18.3  19.2   184  49.1  41.6  75.0   29.48     2
2018-04-23 23:44  18.3  19.1   183  49.3  41.7  74.9   29.48     2
2018-04-23 23:42  18.5  19.2   184  49.1  41.8  75.6   29.48     2
2018-04-23 23:40  18.9  19.4   184  48.7  41.5  75.7   29.48     2
2018-04-23 23:38  18.5  19.2   183  48.7  41.4  75.4   29.48     2
2018-04-23 23:36  17.9  18.7   184  48.7  41.4  75.4   29.48     2
2018-04-23 23:34  17.5  18.3   183  48.7  41.4  75.5   29.48     2
2018-04-23 23:32  17.1  18.1   183  48.7  41.4  75.6   29.48     2
2018-04-23 23:30  16.7  17.5   186  48.6  41.4  76.0   29.48     2
2018-04-23 23:28  17.7  19.4   188  48.6  41.3  75.7   29.48     2
2018-04-23 23:26  16.7  18.7   189  48.7  41.4  75.4   29.48     2
2018-04-23 23:24  18.7  21.6   194  49.3  41.5  74.2   29.48     2
2018-04-23 23:22  16.1  21.8   186  49.5  41.7  74.4   29.48     2
2018-04-23 23:20  17.1  20.6   186  49.8  41.7  73.4   29.48     2